createdAt,value
2022-08-25T02:30:49.811Z,0
2022-08-25T02:31:49.738Z,0
2022-08-25T02:32:49.727Z,0
2022-08-25T02:33:49.739Z,0
2022-08-25T02:34:49.731Z,0
2022-08-25T02:35:49.750Z,0
2022-08-25T02:36:49.753Z,0
2022-08-25T02:37:49.734Z,0
2022-08-25T02:38:49.731Z,0
2022-08-25T02:39:49.769Z,0
2022-08-25T02:40:49.745Z,0
2022-08-25T02:41:49.736Z,0
2022-08-25T02:42:49.738Z,0
2022-08-25T02:43:49.733Z,0
2022-08-25T02:44:49.736Z,0
2022-08-25T02:45:49.772Z,0
2022-08-25T02:46:49.738Z,0
2022-08-25T02:47:49.734Z,0
2022-08-25T02:48:49.730Z,0
2022-08-25T02:49:49.729Z,0
2022-08-25T02:50:49.755Z,0
2022-08-25T02:51:49.743Z,0
2022-08-25T02:52:49.746Z,0
2022-08-25T02:53:49.734Z,0
2022-08-25T02:54:49.731Z,0
2022-08-25T02:55:49.757Z,0
2022-08-25T02:56:49.739Z,0
2022-08-25T02:57:49.730Z,0
2022-08-25T02:58:49.732Z,0
2022-08-25T02:59:49.732Z,0
2022-08-25T03:00:49.829Z,0
2022-08-25T03:01:49.730Z,0
2022-08-25T03:02:49.729Z,0
2022-08-25T03:03:49.806Z,0
2022-08-25T03:04:49.812Z,0
2022-08-25T03:05:49.733Z,0
2022-08-25T03:06:49.747Z,0
2022-08-25T03:07:49.730Z,0
2022-08-25T03:08:49.732Z,0
2022-08-25T03:09:49.724Z,0
2022-08-25T03:10:49.741Z,0
2022-08-25T03:11:49.735Z,0
2022-08-25T03:12:49.716Z,0
2022-08-25T03:13:49.743Z,0
2022-08-25T03:14:49.742Z,0
2022-08-25T03:15:49.748Z,0
2022-08-25T03:16:49.842Z,0
2022-08-25T03:17:50.572Z,0
2022-08-25T03:18:49.721Z,0
2022-08-25T03:19:49.713Z,0
2022-08-25T03:20:49.727Z,0
2022-08-25T03:21:49.727Z,0
2022-08-25T03:22:49.720Z,0
2022-08-25T03:23:49.717Z,0
2022-08-25T03:24:49.718Z,0
2022-08-25T03:25:49.743Z,0
2022-08-25T03:26:49.725Z,0
2022-08-25T03:27:49.723Z,0
2022-08-25T03:28:49.741Z,0
2022-08-25T03:29:49.740Z,0
2022-08-25T03:30:55.774Z,0
2022-08-25T03:31:49.951Z,0
2022-08-25T03:32:49.740Z,0
2022-08-25T03:33:49.742Z,0
2022-08-25T03:34:49.730Z,0
2022-08-25T03:35:49.738Z,0
2022-08-25T03:36:49.759Z,0
2022-08-25T03:37:49.739Z,0
2022-08-25T03:38:49.816Z,0
2022-08-25T03:39:49.793Z,0
2022-08-25T03:40:49.758Z,0
2022-08-25T03:41:49.740Z,0
2022-08-25T03:42:49.745Z,0
2022-08-25T03:43:49.744Z,0
2022-08-25T03:44:49.742Z,0
2022-08-25T03:45:49.842Z,0
2022-08-25T03:46:49.739Z,0
2022-08-25T03:47:49.740Z,0
2022-08-25T03:48:49.751Z,0
2022-08-25T03:49:49.734Z,0
2022-08-25T03:50:50.521Z,0
2022-08-25T03:51:49.762Z,0
2022-08-25T03:52:49.738Z,0
2022-08-25T03:53:49.755Z,0
2022-08-25T03:54:49.736Z,0
2022-08-25T03:55:49.759Z,0
2022-08-25T03:56:49.747Z,0
2022-08-25T03:57:49.742Z,0
2022-08-25T03:58:49.745Z,0.01
2022-08-25T03:59:49.750Z,0.01
2022-08-25T04:00:49.814Z,0.01
2022-08-25T04:01:54.498Z,0.01
2022-08-25T04:02:49.798Z,0.01
2022-08-25T04:03:49.745Z,0.01
2022-08-25T04:04:49.737Z,0.01
2022-08-25T04:05:49.850Z,0.01
2022-08-25T04:06:49.753Z,0.02
2022-08-25T04:07:49.733Z,0.02
2022-08-25T04:08:49.744Z,0.02
2022-08-25T04:09:49.737Z,0.02
2022-08-25T04:10:49.751Z,0.03
2022-08-25T04:11:51.985Z,0.03
2022-08-25T04:12:49.750Z,0.03
2022-08-25T04:13:49.743Z,0.03
2022-08-25T04:14:49.753Z,0.03
2022-08-25T04:15:49.755Z,0.03
2022-08-25T04:16:49.854Z,0.03
2022-08-25T04:17:51.151Z,0.03
2022-08-25T04:18:49.729Z,0.04
2022-08-25T04:19:49.747Z,0.03
2022-08-25T04:20:49.747Z,0.04
2022-08-25T04:21:49.758Z,0.04
2022-08-25T04:22:49.740Z,0.04
2022-08-25T04:23:49.752Z,0.04
2022-08-25T04:24:49.743Z,0.04
2022-08-25T04:25:49.743Z,0.05
2022-08-25T04:26:49.736Z,0.05
2022-08-25T04:27:49.733Z,0.05
2022-08-25T04:28:49.725Z,0.05
2022-08-25T04:29:49.737Z,0.05
2022-08-25T04:30:52.160Z,0.05
2022-08-25T04:31:49.809Z,0.05
2022-08-25T04:32:49.734Z,0.06
2022-08-25T04:33:49.722Z,0.07
2022-08-25T04:34:49.726Z,0.08
2022-08-25T04:35:49.737Z,0.09
2022-08-25T04:36:52.559Z,0.09
2022-08-25T04:37:49.729Z,0.11
2022-08-25T04:38:49.729Z,0.13
2022-08-25T04:39:49.763Z,0.14
2022-08-25T04:40:49.739Z,0.14
2022-08-25T04:41:49.742Z,0.15
2022-08-25T04:42:49.729Z,0.16
2022-08-25T04:43:49.735Z,0.17
2022-08-25T04:44:49.742Z,0.17
2022-08-25T04:45:49.766Z,0.17
2022-08-25T04:46:49.738Z,0.18
2022-08-25T04:47:54.397Z,0.19
2022-08-25T04:48:49.739Z,0.21
2022-08-25T04:49:49.747Z,0.22
2022-08-25T04:50:49.750Z,0.23
2022-08-25T04:51:49.762Z,0.22
2022-08-25T04:52:49.738Z,0.22
2022-08-25T04:53:49.756Z,0.23
2022-08-25T04:54:49.745Z,0.24
2022-08-25T04:55:49.757Z,0.24
2022-08-25T04:56:49.746Z,0.25
2022-08-25T04:57:49.761Z,0.25
2022-08-25T04:58:49.746Z,0.26
2022-08-25T04:59:49.741Z,0.26
2022-08-25T05:00:49.826Z,0.27
2022-08-25T05:01:52.219Z,0.28
2022-08-25T05:02:49.737Z,0.28
2022-08-25T05:03:49.790Z,0.29
2022-08-25T05:04:49.804Z,0.3
2022-08-25T05:05:49.763Z,0.31
2022-08-25T05:06:49.763Z,0.32
2022-08-25T05:07:49.742Z,0.32
2022-08-25T05:08:49.749Z,0.33
2022-08-25T05:09:49.731Z,0.32
2022-08-25T05:10:49.756Z,0.31
2022-08-25T05:11:49.802Z,0.31
2022-08-25T05:12:49.740Z,0.31
2022-08-25T05:13:51.259Z,0.31
2022-08-25T05:14:49.738Z,0.32
2022-08-25T05:15:50.911Z,0.34
2022-08-25T05:16:49.822Z,0.34
2022-08-25T05:17:52.695Z,0.35
2022-08-25T05:18:49.728Z,0.35
2022-08-25T05:19:49.740Z,0.35
2022-08-25T05:20:49.756Z,0.35
2022-08-25T05:21:49.745Z,0.35
2022-08-25T05:22:49.747Z,0.36
2022-08-25T05:23:49.736Z,0.37
2022-08-25T05:24:49.732Z,0.39
2022-08-25T05:25:49.751Z,0.4
2022-08-25T05:26:49.753Z,0.41
2022-08-25T05:27:49.740Z,0.42
2022-08-25T05:28:49.740Z,0.42
2022-08-25T05:29:49.742Z,0.43
2022-08-25T05:30:49.756Z,0.43
2022-08-25T05:31:50.892Z,0.42
2022-08-25T05:32:49.747Z,0.42
2022-08-25T05:33:49.741Z,0.46
2022-08-25T05:34:49.743Z,0.54
2022-08-25T05:35:49.750Z,0.56
2022-08-25T05:36:49.761Z,0.6
2022-08-25T05:37:49.742Z,0.66
2022-08-25T05:38:49.741Z,0.67
2022-08-25T05:39:49.798Z,0.69
2022-08-25T05:40:49.754Z,0.69
2022-08-25T05:41:49.739Z,0.68
2022-08-25T05:42:49.720Z,0.68
2022-08-25T05:43:49.759Z,0.7
2022-08-25T05:44:49.725Z,0.74
2022-08-25T05:45:49.810Z,0.77
2022-08-25T05:46:49.722Z,0.76
2022-08-25T05:47:49.725Z,0.74
2022-08-25T05:48:49.720Z,0.75
2022-08-25T05:49:49.725Z,0.76
2022-08-25T05:50:49.746Z,0.77
2022-08-25T05:51:49.741Z,0.77
2022-08-25T05:52:49.725Z,0.77
2022-08-25T05:53:49.721Z,0.78
2022-08-25T05:54:49.727Z,0.81
2022-08-25T05:55:49.740Z,0.82
2022-08-25T05:56:49.738Z,0.85
2022-08-25T05:57:49.740Z,0.9
2022-08-25T05:58:49.730Z,0.99
2022-08-25T05:59:49.721Z,1.04
2022-08-25T06:00:49.844Z,1.02
2022-08-25T06:01:49.742Z,1.09
2022-08-25T06:02:49.743Z,1.16
2022-08-25T06:03:49.864Z,1.24
2022-08-25T06:04:49.753Z,1.3
2022-08-25T06:05:49.765Z,1.34
2022-08-25T06:06:49.754Z,1.38
2022-08-25T06:07:49.748Z,1.38
2022-08-25T06:08:49.739Z,1.44
2022-08-25T06:09:49.747Z,1.46
2022-08-25T06:10:49.764Z,1.47
2022-08-25T06:11:54.510Z,1.5
2022-08-25T06:12:49.739Z,1.28
2022-08-25T06:13:49.748Z,1.54
2022-08-25T06:14:49.739Z,1.6
2022-08-25T06:15:49.750Z,1.69
2022-08-25T06:16:49.744Z,1.77
2022-08-25T06:17:49.745Z,1.79
2022-08-25T06:18:49.745Z,1.8
2022-08-25T06:19:49.736Z,1.84
2022-08-25T06:20:49.757Z,1.85
2022-08-25T06:21:49.758Z,1.81
2022-08-25T06:22:49.742Z,1.89
2022-08-25T06:23:49.740Z,2.02
2022-08-25T06:24:49.744Z,2.08
2022-08-25T06:25:49.761Z,2.04
2022-08-25T06:26:49.745Z,2.05
2022-08-25T06:27:49.734Z,2.08
2022-08-25T06:28:49.742Z,2.11
2022-08-25T06:29:49.739Z,2.17
2022-08-25T06:30:49.755Z,2.22
2022-08-25T06:31:49.800Z,2.26
2022-08-25T06:32:49.731Z,2.33
2022-08-25T06:33:49.747Z,2.43
2022-08-25T06:34:49.736Z,2.45
2022-08-25T06:35:49.755Z,2.47
2022-08-25T06:36:49.749Z,2.5
2022-08-25T06:37:49.776Z,2.47
2022-08-25T06:38:49.737Z,2.46
2022-08-25T06:39:49.771Z,2.48
2022-08-25T06:40:49.753Z,2.49
2022-08-25T06:41:49.742Z,2.69
2022-08-25T06:42:49.752Z,2.61
2022-08-25T06:43:54.162Z,2.73
2022-08-25T06:44:49.749Z,2.72
2022-08-25T06:45:49.756Z,2.69
2022-08-25T06:46:49.785Z,2.4
2022-08-25T06:47:49.734Z,2.08
2022-08-25T06:48:49.748Z,1.99
2022-08-25T06:49:49.822Z,1.98
2022-08-25T06:50:49.750Z,2.01
2022-08-25T06:51:49.750Z,2.02
2022-08-25T06:52:49.738Z,2.06
2022-08-25T06:53:49.723Z,2.33
2022-08-25T06:54:49.742Z,2.64
2022-08-25T06:55:49.828Z,2.78
2022-08-25T06:56:49.964Z,2.92
2022-08-25T06:57:49.740Z,2.99
2022-08-25T06:58:49.726Z,3.09
2022-08-25T06:59:49.722Z,3.16
2022-08-25T07:00:49.961Z,3.13
2022-08-25T07:01:50.197Z,3.22
2022-08-25T07:02:49.722Z,3.45
2022-08-25T07:03:49.732Z,3.47
2022-08-25T07:04:49.721Z,3.43
2022-08-25T07:05:49.914Z,3.5
2022-08-25T07:06:49.740Z,3.48
2022-08-25T07:07:49.736Z,3.48
2022-08-25T07:08:49.728Z,3.77
2022-08-25T07:09:49.728Z,3.87
2022-08-25T07:10:49.747Z,3.72
2022-08-25T07:11:49.733Z,3.56
2022-08-25T07:12:49.744Z,3.5
2022-08-25T07:13:49.735Z,3.59
2022-08-25T07:15:10.050Z,3.64
2022-08-25T07:15:49.787Z,3.59
2022-08-25T07:16:50.358Z,3.72
2022-08-25T07:17:49.748Z,3.92
2022-08-25T07:18:49.746Z,4.02
2022-08-25T07:19:49.749Z,3.88
2022-08-25T07:20:49.761Z,3.85
2022-08-25T07:21:49.767Z,3.74
2022-08-25T07:22:49.738Z,3.82
2022-08-25T07:23:49.737Z,4.06
2022-08-25T07:24:49.733Z,3.91
2022-08-25T07:25:49.770Z,3.53
2022-08-25T07:26:49.743Z,4.14
2022-08-25T07:27:49.743Z,3
2022-08-25T07:28:49.737Z,4.01
2022-08-25T07:29:49.749Z,3.78
2022-08-25T07:30:51.689Z,2.28
2022-08-25T07:31:49.835Z,3.89
2022-08-25T07:32:54.788Z,4.56
2022-08-25T07:33:49.741Z,4.52
2022-08-25T07:34:52.465Z,4.51
2022-08-25T07:35:49.753Z,4.38
2022-08-25T07:36:49.763Z,4.45
2022-08-25T07:37:49.994Z,4.05
2022-08-25T07:38:49.750Z,4.57
2022-08-25T07:39:49.797Z,4.74
2022-08-25T07:40:53.322Z,4.93
2022-08-25T07:41:52.461Z,4.36
2022-08-25T07:42:49.760Z,3.75
2022-08-25T07:43:50.102Z,4.55
2022-08-25T07:44:49.751Z,1.8
2022-08-25T07:45:49.758Z,2.28
2022-08-25T07:46:50.351Z,3.62
2022-08-25T07:47:51.477Z,4.44
2022-08-25T07:48:53.222Z,3.43
2022-08-25T07:49:49.739Z,2.59
2022-08-25T07:50:49.753Z,1.69
2022-08-25T07:52:05.472Z,2.27
2022-08-25T07:52:54.846Z,4.91
2022-08-25T07:53:49.744Z,3.35
2022-08-25T07:54:49.733Z,4
2022-08-25T07:55:49.779Z,3.37
2022-08-25T07:56:49.733Z,3.29
2022-08-25T07:57:55.477Z,3.34
2022-08-25T07:58:49.737Z,3.39
2022-08-25T07:59:49.736Z,3.46
2022-08-25T08:00:50.720Z,3.04
2022-08-25T08:01:49.814Z,2.2
2022-08-25T08:02:49.791Z,1.29
2022-08-25T08:03:50.340Z,2.34
2022-08-25T08:04:49.900Z,1.41
2022-08-25T08:05:49.785Z,1.38
2022-08-25T08:06:49.782Z,1.91
2022-08-25T08:07:49.745Z,1.91
2022-08-25T08:08:49.857Z,2.04
2022-08-25T08:09:56.125Z,1.33
2022-08-25T08:11:53.844Z,1.1
2022-08-25T08:12:49.747Z,1.07
2022-08-25T08:13:50.836Z,1.18
2022-08-25T08:14:49.726Z,2.17
2022-08-25T08:15:49.818Z,1.5
2022-08-25T08:16:49.733Z,0.96
2022-08-25T08:17:49.731Z,0.97
2022-08-25T08:18:49.732Z,1.07
2022-08-25T08:19:49.734Z,1.23
2022-08-25T08:20:49.742Z,1.48
2022-08-25T08:21:49.743Z,1.32
2022-08-25T08:22:49.734Z,1.15
2022-08-25T08:23:49.724Z,1.05
2022-08-25T08:24:56.235Z,1.09
2022-08-25T08:25:49.751Z,1.07
2022-08-25T08:26:58.712Z,1.26
2022-08-25T08:27:49.735Z,1.98
2022-08-25T08:28:52.106Z,1.63
2022-08-25T08:29:49.734Z,1.98
2022-08-25T08:30:53.764Z,1.5
2022-08-25T08:31:49.816Z,2.07
2022-08-25T08:33:08.789Z,3.84
2022-08-25T08:33:49.741Z,2.73
2022-08-25T08:34:51.375Z,4.41
2022-08-25T08:35:49.752Z,3.92
2022-08-25T08:36:49.760Z,4.84
2022-08-25T08:37:49.752Z,4.52
2022-08-25T08:38:49.748Z,2.45
2022-08-25T08:39:49.795Z,5.04
2022-08-25T08:40:49.761Z,5.15
2022-08-25T08:42:09.695Z,5.06
2022-08-25T08:42:49.740Z,3.49
2022-08-25T08:43:49.746Z,5.15
2022-08-25T08:44:49.744Z,2.92
2022-08-25T08:45:49.757Z,5.62
2022-08-25T08:46:49.827Z,5.47
2022-08-25T08:47:49.743Z,4.21
2022-08-25T08:48:49.741Z,5.46
2022-08-25T08:49:49.738Z,5.21
2022-08-25T08:50:49.752Z,5.58
2022-08-25T08:51:49.752Z,2.68
2022-08-25T08:52:49.742Z,3.85
2022-08-25T08:53:49.743Z,4.21
2022-08-25T08:54:49.747Z,2.51
2022-08-25T08:55:52.674Z,1.96
2022-08-25T08:56:49.737Z,1.34
2022-08-25T08:58:49.938Z,1.81
2022-08-25T08:59:49.749Z,5.87
2022-08-25T09:00:52.258Z,2.25
2022-08-25T09:01:53.311Z,1.94
2022-08-25T09:02:52.183Z,5.74
2022-08-25T09:03:55.180Z,1.71
2022-08-25T09:04:49.745Z,1.6
2022-08-25T09:05:49.759Z,2.24
2022-08-25T09:06:49.763Z,2.21
2022-08-25T09:07:54.632Z,2.21
2022-08-25T09:08:49.741Z,6.07
2022-08-25T09:09:52.199Z,2.05
2022-08-25T09:10:49.754Z,1.88
2022-08-25T09:11:49.742Z,1.97
2022-08-25T09:12:49.777Z,1.74
2022-08-25T09:13:49.739Z,1.55
2022-08-25T09:14:54.041Z,1.36
2022-08-25T09:15:49.785Z,1.45
2022-08-25T09:16:49.825Z,1.8
2022-08-25T09:17:54.317Z,2.24
2022-08-25T09:18:51.114Z,1.72
2022-08-25T09:19:49.746Z,2.33
2022-08-25T09:20:49.762Z,1.71
2022-08-25T09:21:49.753Z,1.68
2022-08-25T09:22:49.753Z,1.72
2022-08-25T09:23:49.725Z,2.05
2022-08-25T09:24:49.726Z,2.16
2022-08-25T09:25:53.559Z,2.97
2022-08-25T09:26:49.727Z,2.12
2022-08-25T09:27:49.722Z,6.52
2022-08-25T09:28:49.730Z,1.98
2022-08-25T09:29:49.728Z,1.9
2022-08-25T09:30:49.799Z,2.49
2022-08-25T09:31:49.816Z,6.32
2022-08-25T09:32:52.363Z,7.29
2022-08-25T09:33:49.780Z,4.52
2022-08-25T09:34:49.721Z,2.26
2022-08-25T09:35:49.803Z,1.89
2022-08-25T09:36:49.739Z,1.69
2022-08-25T09:37:49.753Z,1.79
2022-08-25T09:38:49.736Z,1.95
2022-08-25T09:39:49.757Z,1.94
2022-08-25T09:40:49.750Z,1.81
2022-08-25T09:41:51.229Z,2.56
2022-08-25T09:42:50.049Z,1.92
2022-08-25T09:43:49.739Z,1.85
2022-08-25T09:44:49.750Z,1.92
2022-08-25T09:45:49.743Z,2.47
2022-08-25T09:46:49.744Z,2.44
2022-08-25T09:47:49.754Z,3.24
2022-08-25T09:48:56.132Z,1.86
2022-08-25T09:49:49.768Z,6.89
2022-08-25T09:50:49.748Z,2.02
2022-08-25T09:51:49.770Z,7.67
2022-08-25T09:52:53.492Z,2.08
2022-08-25T09:53:49.750Z,1.56
2022-08-25T09:54:49.739Z,1.64
2022-08-25T09:55:49.764Z,4.03
2022-08-25T09:56:49.752Z,7.22
2022-08-25T09:57:49.744Z,3.25
2022-08-25T09:58:49.733Z,5.29
2022-08-25T09:59:57.288Z,7.15
2022-08-25T10:00:49.754Z,5.95
2022-08-25T10:01:49.796Z,7.5
2022-08-25T10:02:49.744Z,5.76
2022-08-25T10:03:49.735Z,1.75
2022-08-25T10:04:49.829Z,1.77
2022-08-25T10:05:49.755Z,1.86
2022-08-25T10:06:49.764Z,2.09
2022-08-25T10:07:51.003Z,2.09
2022-08-25T10:08:49.747Z,1.9
2022-08-25T10:09:49.745Z,2.57
2022-08-25T10:10:49.767Z,6.83
2022-08-25T10:11:49.740Z,7.3
2022-08-25T10:12:51.466Z,5.1
2022-08-25T10:13:49.735Z,2.52
2022-08-25T10:14:49.756Z,7.22
2022-08-25T10:15:49.779Z,7.62
2022-08-25T10:16:49.818Z,5.51
2022-08-25T10:17:49.738Z,6.76
2022-08-25T10:18:49.736Z,2.3
2022-08-25T10:19:49.740Z,4.77
2022-08-25T10:20:49.752Z,4.88
2022-08-25T10:21:49.750Z,5.86
2022-08-25T10:22:50.424Z,3.11
2022-08-25T10:23:49.739Z,2.45
2022-08-25T10:24:49.733Z,5.74
2022-08-25T10:25:58.953Z,7.3
2022-08-25T10:26:49.732Z,1.79
2022-08-25T10:27:49.747Z,1.9
2022-08-25T10:28:49.739Z,2.3
2022-08-25T10:29:49.752Z,3.26
2022-08-25T10:30:49.859Z,7.1
2022-08-25T10:31:49.764Z,7.63
2022-08-25T10:32:49.725Z,2.34
2022-08-25T10:33:50.410Z,3.07
2022-08-25T10:34:51.667Z,7.67
2022-08-25T10:35:49.742Z,7.65
2022-08-25T10:36:49.746Z,7.63
2022-08-25T10:37:49.720Z,7.49
2022-08-25T10:38:49.725Z,7.23
2022-08-25T10:39:55.492Z,2.06
2022-08-25T10:40:49.737Z,1.34
2022-08-25T10:41:49.724Z,1.2
2022-08-25T10:42:49.721Z,1.07
2022-08-25T10:43:49.734Z,0.96
2022-08-25T10:44:49.741Z,0.89
2022-08-25T10:45:51.044Z,0.88
2022-08-25T10:46:49.737Z,0.85
2022-08-25T10:47:49.750Z,0.77
2022-08-25T10:48:49.743Z,0.73
2022-08-25T10:49:50.083Z,0.76
2022-08-25T10:50:49.824Z,0.81
2022-08-25T10:51:51.042Z,0.94
2022-08-25T10:52:49.746Z,1.22
2022-08-25T10:53:49.745Z,1.77
2022-08-25T10:54:49.745Z,2.92
2022-08-25T10:55:50.337Z,2.59
2022-08-25T10:56:49.750Z,3.46
2022-08-25T10:57:49.738Z,2.87
2022-08-25T10:58:49.739Z,2.9
2022-08-25T10:59:49.734Z,4.04
2022-08-25T11:00:49.761Z,5.57
2022-08-25T11:01:53.649Z,5.4
2022-08-25T11:02:49.740Z,7.25
2022-08-25T11:03:49.741Z,7.17
2022-08-25T11:04:49.824Z,7.31
2022-08-25T11:05:49.760Z,2.42
2022-08-25T11:06:53.106Z,1.56
2022-08-25T11:07:49.741Z,1.56
2022-08-25T11:08:49.743Z,1.43
2022-08-25T11:09:49.740Z,1.69
2022-08-25T11:10:50.452Z,2.31
2022-08-25T11:11:49.749Z,7.37
2022-08-25T11:12:49.731Z,7.35
2022-08-25T11:13:49.736Z,7.4
2022-08-25T11:14:49.737Z,4.74
2022-08-25T11:16:13.258Z,2
2022-08-25T11:16:49.792Z,2.12
2022-08-25T11:17:50.140Z,2.61
2022-08-25T11:18:49.739Z,6.43
2022-08-25T11:19:49.737Z,2.93
2022-08-25T11:20:49.761Z,6.56
2022-08-25T11:21:49.760Z,2.16
2022-08-25T11:22:49.737Z,3.07
2022-08-25T11:23:49.736Z,2.06
2022-08-25T11:24:49.744Z,2.39
2022-08-25T11:25:49.823Z,4.86
2022-08-25T11:26:49.733Z,7.05
2022-08-25T11:27:49.750Z,6.95
2022-08-25T11:28:49.752Z,2.62
2022-08-25T11:29:49.757Z,3.87
2022-08-25T11:30:49.847Z,7.01
2022-08-25T11:31:53.010Z,7.01
2022-08-25T11:32:49.736Z,3.5
2022-08-25T11:33:49.738Z,4.6
2022-08-25T11:34:49.735Z,1.96
2022-08-25T11:35:49.757Z,1.81
2022-08-25T11:36:49.782Z,2.12
2022-08-25T11:37:49.731Z,3.11
2022-08-25T11:38:49.738Z,3.4
2022-08-25T11:39:49.865Z,6.31
2022-08-25T11:40:50.164Z,6.85
2022-08-25T11:41:49.747Z,4.26
2022-08-25T11:42:49.734Z,1.85
2022-08-25T11:43:49.738Z,1.5
2022-08-25T11:44:53.697Z,1.28
2022-08-25T11:45:54.141Z,1.13
2022-08-25T11:46:49.729Z,1.14
2022-08-25T11:47:49.723Z,1.2
2022-08-25T11:48:49.723Z,1.31
2022-08-25T11:49:49.730Z,1.44
2022-08-25T11:50:49.750Z,1.65
2022-08-25T11:51:49.736Z,2.27
2022-08-25T11:52:49.726Z,6.66
2022-08-25T11:53:49.740Z,6.75
2022-08-25T11:54:49.730Z,6.87
2022-08-25T11:55:49.741Z,6.29
2022-08-25T11:56:49.725Z,2.27
2022-08-25T11:57:53.259Z,1.64
2022-08-25T11:58:50.147Z,1.45
2022-08-25T11:59:49.739Z,1.5
2022-08-25T12:00:49.814Z,2.61
2022-08-25T12:01:49.748Z,4.43
2022-08-25T12:02:49.747Z,4.87
2022-08-25T12:03:50.807Z,5.94
2022-08-25T12:04:49.873Z,1.87
2022-08-25T12:05:49.743Z,1.31
2022-08-25T12:06:49.760Z,1.2
2022-08-25T12:07:49.741Z,1.2
2022-08-25T12:08:49.743Z,1.15
2022-08-25T12:09:49.728Z,1.23
2022-08-25T12:10:49.758Z,1.39
2022-08-25T12:11:49.723Z,1.58
2022-08-25T12:12:49.725Z,1.62
2022-08-25T12:13:49.728Z,1.62
2022-08-25T12:14:49.727Z,1.47
2022-08-25T12:15:49.766Z,1.32
2022-08-25T12:16:49.797Z,1.15
2022-08-25T12:17:49.735Z,1.06
2022-08-25T12:18:50.407Z,1.06
2022-08-25T12:19:49.746Z,1.15
2022-08-25T12:20:49.754Z,1.35
2022-08-25T12:21:49.755Z,3.78
2022-08-25T12:22:49.734Z,2.41
2022-08-25T12:23:53.274Z,3.36
2022-08-25T12:24:49.736Z,4.58
2022-08-25T12:25:49.744Z,4.77
2022-08-25T12:26:49.743Z,4.7
2022-08-25T12:27:49.739Z,5.22
2022-08-25T12:28:49.738Z,5.49
2022-08-25T12:29:49.729Z,7.12
2022-08-25T12:30:50.558Z,7.86
2022-08-25T12:31:49.732Z,6.1
2022-08-25T12:32:49.749Z,6.65
2022-08-25T12:33:49.733Z,5.48
2022-08-25T12:34:49.749Z,2.14
2022-08-25T12:35:49.760Z,1.58
2022-08-25T12:36:49.757Z,1.31
2022-08-25T12:37:49.760Z,1.26
2022-08-25T12:38:52.201Z,1.24
2022-08-25T12:39:49.790Z,1.26
2022-08-25T12:40:49.757Z,1.31
2022-08-25T12:41:49.767Z,1.38
2022-08-25T12:42:49.727Z,1.31
2022-08-25T12:43:49.743Z,1.24
2022-08-25T12:44:49.734Z,1.25
2022-08-25T12:45:49.865Z,1.3
2022-08-25T12:46:49.735Z,1.43
2022-08-25T12:47:49.739Z,1.79
2022-08-25T12:48:49.742Z,1.83
2022-08-25T12:49:49.735Z,2.35
2022-08-25T12:50:49.746Z,2.41
2022-08-25T12:51:49.758Z,1.6
2022-08-25T12:52:49.744Z,1.39
2022-08-25T12:53:49.746Z,1.3
2022-08-25T12:54:49.740Z,1.28
2022-08-25T12:55:49.764Z,1.59
2022-08-25T12:56:49.741Z,1.45
2022-08-25T12:57:49.746Z,1.83
2022-08-25T12:58:59.938Z,2.29
2022-08-25T12:59:49.725Z,1.64
2022-08-25T13:00:52.864Z,1.5
2022-08-25T13:01:49.912Z,1.37
2022-08-25T13:02:52.197Z,1.35
2022-08-25T13:03:49.784Z,1.43
2022-08-25T13:04:49.722Z,1.71
2022-08-25T13:05:49.741Z,1.63
2022-08-25T13:06:49.739Z,1.58
2022-08-25T13:07:49.724Z,1.58
2022-08-25T13:08:49.719Z,1.68
2022-08-25T13:09:49.729Z,1.87
2022-08-25T13:10:49.738Z,3.54
2022-08-25T13:11:49.741Z,2.22
2022-08-25T13:12:49.723Z,2.3
2022-08-25T13:13:49.731Z,1.47
2022-08-25T13:14:49.758Z,1.23
2022-08-25T13:15:54.893Z,1.14
2022-08-25T13:16:49.839Z,1.13
2022-08-25T13:17:49.747Z,1.18
2022-08-25T13:18:51.404Z,1.28
2022-08-25T13:19:49.744Z,1.36
2022-08-25T13:20:49.755Z,1.54
2022-08-25T13:21:49.753Z,1.8
2022-08-25T13:22:50.981Z,2.01
2022-08-25T13:23:49.738Z,3.02
2022-08-25T13:24:50.421Z,5.25
2022-08-25T13:25:49.757Z,5.15
2022-08-25T13:26:49.751Z,2.45
2022-08-25T13:27:49.734Z,2
2022-08-25T13:28:50.181Z,1.89
2022-08-25T13:29:49.789Z,2
2022-08-25T13:30:49.752Z,2.71
2022-08-25T13:31:49.931Z,5.65
2022-08-25T13:32:49.740Z,4.76
2022-08-25T13:33:49.740Z,4.3
2022-08-25T13:35:49.777Z,2.51
2022-08-25T13:36:53.970Z,1.7
2022-08-25T13:37:49.743Z,1.69
2022-08-25T13:38:49.737Z,1.83
2022-08-25T13:39:55.965Z,1.37
2022-08-25T13:40:49.852Z,1.27
2022-08-25T13:41:49.751Z,1.36
2022-08-25T13:42:54.685Z,1.44
2022-08-25T13:43:49.737Z,1.63
2022-08-25T13:44:51.952Z,1.81
2022-08-25T13:45:50.462Z,1.9
2022-08-25T13:46:49.739Z,1.99
2022-08-25T13:47:49.745Z,2.66
2022-08-25T13:48:50.073Z,2.19
2022-08-25T13:49:49.777Z,2.31
2022-08-25T13:50:51.910Z,2.83
2022-08-25T13:51:49.758Z,4.6
2022-08-25T13:52:49.751Z,7.11
2022-08-25T13:53:49.745Z,6.14
2022-08-25T13:54:49.754Z,6.63
2022-08-25T13:55:51.451Z,5.43
2022-08-25T13:56:49.737Z,5.96
2022-08-25T13:57:49.739Z,5.36
2022-08-25T13:58:49.739Z,2.97
2022-08-25T13:59:50.299Z,1.89
2022-08-25T14:00:49.765Z,1.53
2022-08-25T14:01:50.206Z,1.54
2022-08-25T14:02:50.106Z,1.62
2022-08-25T14:03:49.744Z,1.22
2022-08-25T14:04:51.712Z,1.1
2022-08-25T14:05:49.755Z,1.07
2022-08-25T14:06:49.766Z,1.05
2022-08-25T14:07:58.740Z,1.05
2022-08-25T14:08:49.745Z,0.98
2022-08-25T14:09:49.734Z,0.94
2022-08-25T14:10:49.762Z,0.94
2022-08-25T14:11:49.737Z,1.01
2022-08-25T14:12:49.878Z,1.14
2022-08-25T14:13:49.740Z,1.35
2022-08-25T14:14:49.734Z,1.73
2022-08-25T14:15:49.773Z,3.86
2022-08-25T14:16:49.846Z,4.77
2022-08-25T14:17:49.746Z,5.27
2022-08-25T14:18:49.720Z,4.78
2022-08-25T14:19:49.727Z,3.31
2022-08-25T14:20:49.815Z,2.71
2022-08-25T14:21:49.749Z,1.76
2022-08-25T14:22:49.726Z,1.78
2022-08-25T14:23:49.724Z,4.64
2022-08-25T14:24:49.728Z,3.4
2022-08-25T14:25:49.752Z,2.44
2022-08-25T14:26:53.993Z,3.52
2022-08-25T14:28:49.734Z,1.8
2022-08-25T14:29:52.708Z,2.05
2022-08-25T14:30:51.694Z,1.85
2022-08-25T14:31:49.816Z,1.63
2022-08-25T14:32:51.025Z,1.67
2022-08-25T14:33:50.086Z,1.88
2022-08-25T14:34:49.732Z,3.23
2022-08-25T14:35:49.754Z,3.89
2022-08-25T14:36:49.766Z,2.03
2022-08-25T14:37:49.739Z,2.25
2022-08-25T14:38:54.533Z,4.12
2022-08-25T14:39:49.759Z,3.88
2022-08-25T14:40:50.154Z,4.02
2022-08-25T14:41:51.116Z,3.28
2022-08-25T14:42:49.739Z,2.58
2022-08-25T14:43:49.737Z,2.25
2022-08-25T14:44:49.739Z,1.85
2022-08-25T14:45:49.929Z,1.68
2022-08-25T14:46:49.737Z,1.52
2022-08-25T14:47:50.197Z,1.51
2022-08-25T14:48:49.734Z,1.56
2022-08-25T14:49:49.733Z,1.69
2022-08-25T14:50:50.738Z,2.11
2022-08-25T14:51:49.758Z,2.95
2022-08-25T14:52:52.181Z,3.52
2022-08-25T14:53:49.737Z,3.38
2022-08-25T14:54:49.735Z,3.13
2022-08-25T14:55:49.762Z,2.84
2022-08-25T14:56:49.737Z,2.58
2022-08-25T14:57:49.734Z,2.46
2022-08-25T14:58:54.165Z,2.11
2022-08-25T14:59:49.737Z,2.9
2022-08-25T15:00:49.831Z,2.52
2022-08-25T15:01:50.164Z,2.39
2022-08-25T15:02:49.787Z,2.32
2022-08-25T15:03:49.786Z,1.45
2022-08-25T15:04:51.908Z,1.43
2022-08-25T15:05:55.372Z,2.08
2022-08-25T15:06:54.207Z,1.69
2022-08-25T15:07:54.182Z,1.69
2022-08-25T15:08:54.185Z,2.01
2022-08-25T15:09:54.168Z,1.82
2022-08-25T15:10:54.188Z,1.88
2022-08-25T15:11:54.479Z,1.87
2022-08-25T15:12:54.895Z,1.8
2022-08-25T15:13:54.170Z,1.36
2022-08-25T15:14:54.175Z,1.3
2022-08-25T15:15:54.193Z,1.26
2022-08-25T15:16:54.239Z,1.31
2022-08-25T15:17:55.228Z,1.42
2022-08-25T15:18:54.183Z,1.41
2022-08-25T15:19:54.187Z,1.07
2022-08-25T15:20:54.189Z,0.75
2022-08-25T15:21:54.186Z,0.65
2022-08-25T15:22:54.167Z,0.61
2022-08-25T15:23:56.576Z,0.67
2022-08-25T15:24:54.172Z,0.7
2022-08-25T15:25:54.194Z,0.71
2022-08-25T15:27:54.184Z,0.66
2022-08-25T15:28:54.182Z,0.59
2022-08-25T15:29:54.177Z,0.55
2022-08-25T15:30:54.182Z,0.56
2022-08-25T15:31:54.286Z,0.61
2022-08-25T15:32:54.166Z,0.62
2022-08-25T15:33:54.181Z,0.61
2022-08-25T15:34:54.176Z,0.58
2022-08-25T15:35:54.180Z,0.6
2022-08-25T15:36:54.187Z,0.63
2022-08-25T15:37:54.198Z,0.78
2022-08-25T15:38:54.177Z,0.84
2022-08-25T15:39:54.225Z,1.01
2022-08-25T15:40:54.179Z,1.03
2022-08-25T15:41:54.229Z,1.27
2022-08-25T15:42:54.230Z,1.29
2022-08-25T15:43:54.171Z,1.3
2022-08-25T15:44:54.172Z,1.28
2022-08-25T15:45:54.218Z,1.23
2022-08-25T15:46:54.229Z,1.07
2022-08-25T15:47:54.254Z,0.79
2022-08-25T15:49:54.175Z,0.83
2022-08-25T15:50:54.216Z,0.91
2022-08-25T15:51:54.534Z,0.89
2022-08-25T15:52:54.169Z,0.8
2022-08-25T15:53:54.172Z,0.7
2022-08-25T15:54:54.170Z,0.61
2022-08-25T15:55:54.243Z,0.6
2022-08-25T15:56:54.170Z,0.62
2022-08-25T15:57:54.163Z,0.66
2022-08-25T15:58:54.163Z,0.69
2022-08-25T15:59:54.218Z,0.67
2022-08-25T16:00:56.178Z,0.64
2022-08-25T16:01:54.265Z,0.61
2022-08-25T16:02:54.155Z,0.61
2022-08-25T16:03:54.148Z,0.59
2022-08-25T16:04:54.152Z,0.53
2022-08-25T16:05:54.214Z,0.48